Observation data for Olton on 02/12/2018      Previous  Date  Next       Current Mesonet Observations  Soil Data  Daily Summary Page  Observations in Plain Language
KONS 120600Z 16009KT M07/M15 A302 RMK A01 T10661151  RH  052%=      5-min Rain = 0
KONS 120605Z 16009KT M07/M15 A302 RMK A01 T10661151  RH  052%=      5-min Rain = 0
KONS 120610Z 17009KT M07/M15 A302 RMK A01 T10681151  RH  052%=      5-min Rain = 0
KONS 120615Z 17008KT M07/M14 A302 RMK A01 T10661143  RH  055%=      5-min Rain = 0
KONS 120620Z 17007KT M07/M15 A3021 RMK A01 T10671145  RH  055%=      5-min Rain = 0
KONS 120625Z 16007KT M07/M15 A3021 RMK A01 T10691148  RH  055%=      5-min Rain = 0
KONS 120630Z 15007KT M07/M15 A3021 RMK A01 T10691153  RH  052%=      5-min Rain = 0
KONS 120635Z 16007KT M07/M16 A3021 RMK A01 T10701155  RH  052%=      5-min Rain = 0
KONS 120640Z 16007KT M07/M16 A3021 RMK A01 T10711156  RH  051%=      5-min Rain = 0
KONS 120645Z 16008KT M07/M16 A3021 RMK A01 T10721157  RH  051%=      5-min Rain = 0
KONS 120650Z 16009KT M08/M16 A3021 RMK A01 T10761155  RH  054%=      5-min Rain = 0
KONS 120655Z 17008KT M08/M15 A3021 RMK A01 T10751154  RH  054%=      5-min Rain = 0
KONS 120700Z 17007KT M07/M15 A3021 RMK A01 T10741154  RH  054%=      5-min Rain = 0
KONS 120705Z 17008KT M07/M15 A3021 RMK A01 T10741150  RH  055%=      5-min Rain = 0
KONS 120710Z 18008KT M07/M14 A3022 RMK A01 T10711144  RH  057%=      5-min Rain = 0
KONS 120715Z 18008KT M07/M14 A3022 RMK A01 T10711144  RH  057%=      5-min Rain = 0
KONS 120720Z 19008KT M07/M14 A3022 RMK A01 T10731142  RH  059%=      5-min Rain = 0
KONS 120725Z 19007KT M08/M14 A3022 RMK A01 T10751142  RH  060%=      5-min Rain = 0
KONS 120730Z 19006KT M08/M14 A3022 RMK A01 T10761141  RH  060%=      5-min Rain = 0
KONS 120735Z 20006KT M08/M14 A3023 RMK A01 T10761140  RH  061%=      5-min Rain = 0
KONS 120740Z 20005KT M08/M14 A3023 RMK A01 T10761141  RH  061%=      5-min Rain = 0
KONS 120745Z 20006KT M08/M14 A3023 RMK A01 T10791144  RH  061%=      5-min Rain = 0
KONS 120750Z 20005KT M08/M15 A3024 RMK A01 T10831147  RH  061%=      5-min Rain = 0
KONS 120755Z 18004KT M08/M15 A3023 RMK A01 T10841146  RH  062%=      5-min Rain = 0
KONS 120800Z 18004KT M08/M15 A3023 RMK A01 T10821145  RH  062%=      5-min Rain = 0
KONS 120805Z 16003KT M08/M14 A3023 RMK A01 T10781140  RH  062%=      5-min Rain = 0
KONS 120810Z 17003KT M07/M14 A3023 RMK A01 T10731136  RH  062%=      5-min Rain = 0
KONS 120815Z 16004KT M07/M14 A3023 RMK A01 T10731141  RH  059%=      5-min Rain = 0
KONS 120820Z 16005KT M08/M14 A3023 RMK A01 T10751138  RH  062%=      5-min Rain = 0
KONS 120825Z 16004KT M08/M14 A3023 RMK A01 T10771137  RH  063%=      5-min Rain = 0
KONS 120830Z 16005KT M08/M14 A3023 RMK A01 T10761137  RH  063%=      5-min Rain = 0
KONS 120835Z 17006KT M08/M14 A3023 RMK A01 T10761137  RH  063%=      5-min Rain = 0
KONS 120840Z 17008KT M08/M14 A3023 RMK A01 T10751138  RH  062%=      5-min Rain = 0
KONS 120845Z 17009KT M08/M15 A3023 RMK A01 T10761147  RH  057%=      5-min Rain = 0
KONS 120850Z 17009KT M08/M15 A3022 RMK A01 T10761148  RH  057%=      5-min Rain = 0
KONS 120855Z 17010KT M08/M15 A3022 RMK A01 T10751146  RH  058%=      5-min Rain = 0
KONS 120900Z 17010KT M07/M15 A3022 RMK A01 T10731146  RH  057%=      5-min Rain = 0
KONS 120905Z 17010KT M08/M15 A3022 RMK A01 T10751148  RH  057%=      5-min Rain = 0
KONS 120910Z 17009KT M08/M15 A3023 RMK A01 T10761147  RH  057%=      5-min Rain = 0
KONS 120915Z 17008KT M08/M15 A3023 RMK A01 T10751145  RH  058%=      5-min Rain = 0
KONS 120920Z 17008KT M07/M15 A3022 RMK A01 T10721146  RH  057%=      5-min Rain = 0
KONS 120925Z 17008KT M08/M15 A3022 RMK A01 T10751148  RH  056%=      5-min Rain = 0
KONS 120930Z 17008KT M08/M15 A3023 RMK A01 T10761148  RH  057%=      5-min Rain = 0
KONS 120935Z 17008KT M08/M15 A3023 RMK A01 T10761147  RH  058%=      5-min Rain = 0
KONS 120940Z 18008KT M08/M14 A3023 RMK A01 T10751141  RH  060%=      5-min Rain = 0
KONS 120945Z 17008KT M07/M14 A3023 RMK A01 T10731138  RH  061%=      5-min Rain = 0
KONS 120950Z 17008KT M07/M14 A3024 RMK A01 T10731136  RH  062%=      5-min Rain = 0
KONS 120955Z 17008KT M07/M14 A3024 RMK A01 T10741137  RH  061%=      5-min Rain = 0
KONS 121000Z 17008KT M08/M14 A3024 RMK A01 T10771144  RH  060%=      5-min Rain = 0
KONS 121005Z 17006KT M08/M15 A3024 RMK A01 T10791146  RH  059%=      5-min Rain = 0
KONS 121010Z 18006KT M08/M14 A3024 RMK A01 T10791143  RH  061%=      5-min Rain = 0
KONS 121015Z 17007KT M08/M14 A3024 RMK A01 T10811143  RH  062%=      5-min Rain = 0
KONS 121020Z 17007KT M08/M14 A3024 RMK A01 T10841142  RH  064%=      5-min Rain = 0
KONS 121025Z 17007KT M08/M14 A3024 RMK A01 T10841142  RH  064%=      5-min Rain = 0
KONS 121030Z 17007KT M08/M14 A3024 RMK A01 T10811143  RH  062%=      5-min Rain = 0
KONS 121035Z 18007KT M08/M14 A3024 RMK A01 T10791142  RH  062%=      5-min Rain = 0
KONS 121040Z 17005KT M08/M14 A3024 RMK A01 T10751137  RH  062%=      5-min Rain = 0
KONS 121045Z 16005KT M07/M14 A3024 RMK A01 T10721138  RH  060%=      5-min Rain = 0
KONS 121050Z 16007KT M07/M14 A3024 RMK A01 T10701141  RH  058%=      5-min Rain = 0
KONS 121055Z 16007KT M07/M14 A3023 RMK A01 T10711143  RH  057%=      5-min Rain = 0
KONS 121100Z 16007KT M07/M14 A3024 RMK A01 T10711142  RH  058%=      5-min Rain = 0
KONS 121105Z 15006KT M07/M14 A3023 RMK A01 T10701141  RH  058%=      5-min Rain = 0
KONS 121110Z 16006KT M07/M14 A3023 RMK A01 T10671136  RH  059%=      5-min Rain = 0
KONS 121115Z 16005KT M07/M14 A3024 RMK A01 T10681140  RH  057%=      5-min Rain = 0
KONS 121120Z 16005KT M07/M14 A3024 RMK A01 T10701144  RH  057%=      5-min Rain = 0
KONS 121125Z 16005KT M07/M14 A3024 RMK A01 T10721144  RH  057%=      5-min Rain = 0
KONS 121130Z 16005KT M07/M14 A3023 RMK A01 T10711142  RH  058%=      5-min Rain = 0
KONS 121135Z 15005KT M07/M14 A3023 RMK A01 T10711141  RH  058%=      5-min Rain = 0
KONS 121140Z 15005KT M07/M14 A3023 RMK A01 T10721138  RH  060%=      5-min Rain = 0
KONS 121145Z 16005KT M07/M14 A3023 RMK A01 T10731137  RH  061%=      5-min Rain = 0
KONS 121150Z 16006KT M08/M14 A3023 RMK A01 T10751143  RH  059%=      5-min Rain = 0
KONS 121155Z 15006KT M08/M14 A3023 RMK A01 T10771143  RH  060%=      5-min Rain = 0
KONS 121200Z 15005KT M08/M14 A3023 RMK A01 T10751138  RH  062%=      5-min Rain = 0
KONS 121205Z 15005KT M08/M14 A3024 RMK A01 T10751136  RH  063%=      5-min Rain = 0
KONS 121210Z 15006KT M08/M13 A3024 RMK A01 T10751134  RH  064%=      5-min Rain = 0
KONS 121215Z 15006KT M07/M13 A3024 RMK A01 T10731134  RH  062%=      5-min Rain = 0
KONS 121220Z 15006KT M07/M13 A3024 RMK A01 T10711134  RH  061%=      5-min Rain = 0
KONS 121225Z 15007KT M07/M14 A3025 RMK A01 T10691135  RH  060%=      5-min Rain = 0
KONS 121230Z 16006KT M07/M14 A3026 RMK A01 T10681137  RH  059%=      5-min Rain = 0
KONS 121235Z 17006KT M07/M13 A3026 RMK A01 T10671134  RH  059%=      5-min Rain = 0
KONS 121240Z 18005KT M06/M13 A3026 RMK A01 T10631130  RH  060%=      5-min Rain = 0
KONS 121245Z 18005KT M06/M13 A3026 RMK A01 T10601128  RH  060%=      5-min Rain = 0
KONS 121250Z 17005KT M06/M13 A3026 RMK A01 T10611131  RH  059%=      5-min Rain = 0
KONS 121255Z 17006KT M06/M13 A3026 RMK A01 T10631133  RH  058%=      5-min Rain = 0
KONS 121300Z 17007KT M06/M14 A3026 RMK A01 T10641135  RH  058%=      5-min Rain = 0
KONS 121305Z 16008KT M06/M14 A3026 RMK A01 T10631135  RH  057%=      5-min Rain = 0
KONS 121310Z 16008KT M06/M14 A3026 RMK A01 T10611135  RH  057%=      5-min Rain = 0
KONS 121315Z 16007KT M06/M14 A3026 RMK A01 T10621137  RH  056%=      5-min Rain = 0
KONS 121320Z 16007KT M06/M14 A3026 RMK A01 T10641139  RH  056%=      5-min Rain = 0
KONS 121325Z 16007KT M07/M14 A3026 RMK A01 T10671139  RH  057%=      5-min Rain = 0
KONS 121330Z 15007KT M07/M14 A3026 RMK A01 T10681139  RH  058%=      5-min Rain = 0
KONS 121335Z 15007KT M07/M14 A3026 RMK A01 T10691139  RH  059%=      5-min Rain = 0
KONS 121340Z 14006KT M07/M14 A3025 RMK A01 T10681136  RH  059%=      5-min Rain = 0
KONS 121345Z 12005KT M07/M13 A3025 RMK A01 T10661133  RH  060%=      5-min Rain = 0
KONS 121350Z 12004KT M07/M13 A3026 RMK A01 T10651132  RH  060%=      5-min Rain = 0
KONS 121355Z 12004KT M06/M13 A3026 RMK A01 T10621129  RH  060%=      5-min Rain = 0
KONS 121400Z 12005KT M06/M13 A3026 RMK A01 T10601128  RH  059%=      5-min Rain = 0
KONS 121405Z 12005KT M06/M13 A3026 RMK A01 T10581127  RH  059%=      5-min Rain = 0
KONS 121410Z 12004KT M06/M13 A3026 RMK A01 T10561125  RH  059%=      5-min Rain = 0
KONS 121415Z 12004KT M05/M12 A3026 RMK A01 T10521123  RH  058%=      5-min Rain = 0
KONS 121420Z 14005KT M05/M12 A3027 RMK A01 T10481124  RH  056%=      5-min Rain = 0
KONS 121425Z 14006KT M04/M13 A3027 RMK A01 T10431125  RH  053%=      5-min Rain = 0
KONS 121430Z 14007KT M04/M13 A3027 RMK A01 T10381129  RH  050%=      5-min Rain = 0
KONS 121435Z 14008KT M03/M13 A3027 RMK A01 T10341127  RH  049%=      5-min Rain = 0
KONS 121440Z 14008KT M03/M12 A3027 RMK A01 T10291124  RH  049%=      5-min Rain = 0
KONS 121445Z 15010KT M03/M13 A3028 RMK A01 T10281127  RH  047%=      5-min Rain = 0
KONS 121450Z 15009KT M03/M13 A3028 RMK A01 T10311128  RH  048%=      5-min Rain = 0
KONS 121455Z 14010KT M03/M13 A3029 RMK A01 T10301128  RH  048%=      5-min Rain = 0
KONS 121500Z 14009KT M03/M13 A3029 RMK A01 T10291127  RH  047%=      5-min Rain = 0
KONS 121505Z 14009KT M03/M13 A3028 RMK A01 T10281127  RH  047%=      5-min Rain = 0
KONS 121510Z 13010KT M02/M13 A3029 RMK A01 T10221126  RH  045%=      5-min Rain = 0
KONS 121515Z 13009KT M02/M13 A3029 RMK A01 T10201128  RH  044%=      5-min Rain = 0
KONS 121520Z 13010KT M02/M13 A3029 RMK A01 T10181127  RH  044%=      5-min Rain = 0
KONS 121525Z 13009G15KT M01/M13 A3029 RMK A01 T10131127  RH  042%=      5-min Rain = 0
KONS 121530Z 13011KT M01/M13 A3029 RMK A01 T10111131  RH  040%=      5-min Rain = 0
KONS 121535Z 14011KT M01/M13 A3029 RMK A01 T10061130  RH  039%=      5-min Rain = 0
KONS 121540Z 14011KT M00/M13 A303 RMK A01 T10041133  RH  038%=      5-min Rain = 0
KONS 121545Z 14011KT 00/M13 A3029 RMK A01 T00021131  RH  036%=      5-min Rain = 0
KONS 121550Z 13012KT 00/M13 A3029 RMK A01 T00031134  RH  036%=      5-min Rain = 0
KONS 121555Z 13014KT 00/M14 A3029 RMK A01 T00041135  RH  035%=      5-min Rain = 0
KONS 121600Z 15013KT 00/M14 A3029 RMK A01 T00021137  RH  035%=      5-min Rain = 0
KONS 121605Z 15013KT 00/M14 A3029 RMK A01 T00031137  RH  034%=      5-min Rain = 0
KONS 121610Z 15013KT 01/M14 A3029 RMK A01 T00051138  RH  034%=      5-min Rain = 0
KONS 121615Z 14013KT 01/M14 A3029 RMK A01 T00091140  RH  032%=      5-min Rain = 0
KONS 121620Z 14016KT 00/M14 A3029 RMK A01 T00011141  RH  034%=      5-min Rain = 0
KONS 121625Z 14015KT 00/M14 A3029 RMK A01 T00011140  RH  035%=      5-min Rain = 0
KONS 121630Z 13013KT 01/M14 A3029 RMK A01 T00071136  RH  034%=      5-min Rain = 0
KONS 121635Z 14014KT 01/M14 A3029 RMK A01 T00121140  RH  032%=      5-min Rain = 0
KONS 121640Z 13014KT 01/M14 A3029 RMK A01 T00081139  RH  033%=      5-min Rain = 0
KONS 121645Z 13013G18KT 01/M14 A3029 RMK A01 T00081140  RH  033%=      5-min Rain = 0
KONS 121650Z 13013KT 01/M14 A3029 RMK A01 T00111138  RH  032%=      5-min Rain = 0
KONS 121655Z 14013KT 01/M14 A3029 RMK A01 T00131137  RH  032%=      5-min Rain = 0
KONS 121700Z 13012KT 02/M14 A3029 RMK A01 T00181137  RH  031%=      5-min Rain = 0
KONS 121705Z 13013KT 02/M14 A3029 RMK A01 T00161137  RH  031%=      5-min Rain = 0
KONS 121710Z 14014KT 02/M14 A3028 RMK A01 T00151138  RH  031%=      5-min Rain = 0
KONS 121715Z 13013G18KT 02/M14 A3028 RMK A01 T00191135  RH  031%=      5-min Rain = 0
KONS 121720Z 13011KT 02/M14 A3028 RMK A01 T00201137  RH  031%=      5-min Rain = 0
KONS 121725Z 12011G16KT 02/M14 A3028 RMK A01 T00241136  RH  030%=      5-min Rain = 0
KONS 121730Z 13012G18KT 03/M14 A3028 RMK A01 T00281139  RH  028%=      5-min Rain = 0
KONS 121735Z 13013KT 03/M14 A3028 RMK A01 T00331143  RH  027%=      5-min Rain = 0
KONS 121740Z 13012G18KT 04/M14 A3027 RMK A01 T00351143  RH  026%=      5-min Rain = 0
KONS 121745Z 14013G18KT 03/M15 A3027 RMK A01 T00341148  RH  025%=      5-min Rain = 0
KONS 121750Z 13012G17KT 03/M15 A3027 RMK A01 T00321145  RH  026%=      5-min Rain = 0
KONS 121755Z 12012KT 04/M14 A3027 RMK A01 T00361144  RH  026%=      5-min Rain = 0
KONS 121800Z 12013KT 04/M15 A3027 RMK A01 T00371147  RH  025%=      5-min Rain = 0
KONS 121805Z 13013G18KT 04/M15 A3026 RMK A01 T00391146  RH  025%=      5-min Rain = 0
KONS 121810Z 14012KT 04/M15 A3026 RMK A01 T00421151  RH  023%=      5-min Rain = 0
KONS 121815Z 13011G16KT 05/M15 A3026 RMK A01 T00451147  RH  024%=      5-min Rain = 0
KONS 121820Z 13014G19KT 04/M14 A3026 RMK A01 T00441144  RH  025%=      5-min Rain = 0
KONS 121825Z 12012G17KT 04/M14 A3026 RMK A01 T00441144  RH  024%=      5-min Rain = 0
KONS 121830Z 14013G20KT 05/M15 A3025 RMK A01 T00471147  RH  023%=      5-min Rain = 0
KONS 121835Z 13013G18KT 05/M15 A3025 RMK A01 T00511145  RH  023%=      5-min Rain = 0
KONS 121840Z 14013G18KT 05/M15 A3025 RMK A01 T00521147  RH  023%=      5-min Rain = 0
KONS 121845Z 14015G20KT 05/M15 A3025 RMK A01 T00541151  RH  022%=      5-min Rain = 0
KONS 121850Z 13013G19KT 05/M15 A3024 RMK A01 T00511152  RH  022%=      5-min Rain = 0
KONS 121855Z 14015G22KT 06/M15 A3024 RMK A01 T00561150  RH  021%=      5-min Rain = 0
KONS 121900Z 14014KT 06/M16 A3024 RMK A01 T00611158  RH  019%=      5-min Rain = 0
KONS 121905Z 14014G21KT 06/M16 A3023 RMK A01 T00601156  RH  020%=      5-min Rain = 0
KONS 121910Z 13015G21KT 06/M16 A3023 RMK A01 T00581158  RH  020%=      5-min Rain = 0
KONS 121915Z 13015G20KT 06/M16 A3022 RMK A01 T00621155  RH  020%=      5-min Rain = 0
KONS 121920Z 13015G21KT 06/M16 A3022 RMK A01 T00631156  RH  019%=      5-min Rain = 0
KONS 121925Z 14014KT 06/M16 A3022 RMK A01 T00631159  RH  019%=      5-min Rain = 0
KONS 121930Z 14017G25KT 07/M16 A3021 RMK A01 T00671163  RH  018%=      5-min Rain = 0
KONS 121935Z 14015G20KT 07/M17 A3021 RMK A01 T00661166  RH  018%=      5-min Rain = 0
KONS 121940Z 14015G21KT 07/M16 A302 RMK A01 T00681163  RH  018%=      5-min Rain = 0
KONS 121945Z 14016G21KT 07/M16 A302 RMK A01 T00721162  RH  017%=      5-min Rain = 0
KONS 121950Z 14016G21KT 07/M16 A3019 RMK A01 T00731163  RH  017%=      5-min Rain = 0
KONS 121955Z 14015G20KT 07/M16 A3019 RMK A01 T00721162  RH  017%=      5-min Rain = 0
KONS 122000Z 13015G21KT 07/M16 A3019 RMK A01 T00701161  RH  018%=      5-min Rain = 0
KONS 122005Z 14017G23KT 07/M16 A3018 RMK A01 T00731160  RH  017%=      5-min Rain = 0
KONS 122010Z 14016G21KT 08/M16 A3018 RMK A01 T00771163  RH  017%=      5-min Rain = 0
KONS 122015Z 14017G22KT 08/M16 A3018 RMK A01 T00771163  RH  017%=      5-min Rain = 0
KONS 122020Z 14014G20KT 08/M16 A3018 RMK A01 T00761159  RH  017%=      5-min Rain = 0
KONS 122025Z 14017G23KT 08/M16 A3017 RMK A01 T00771156  RH  018%=      5-min Rain = 0
KONS 122030Z 15017G23KT 08/M16 A3017 RMK A01 T00761155  RH  018%=      5-min Rain = 0
KONS 122035Z 15017G22KT 07/M15 A3017 RMK A01 T00741150  RH  019%=      5-min Rain = 0
KONS 122040Z 14017G22KT 08/M15 A3017 RMK A01 T00751147  RH  019%=      5-min Rain = 0
KONS 122045Z 15017KT 07/M15 A3017 RMK A01 T00741147  RH  019%=      5-min Rain = 0
KONS 122050Z 14016KT 08/M14 A3017 RMK A01 T00781141  RH  020%=      5-min Rain = 0
KONS 122055Z 14018KT 08/M14 A3017 RMK A01 T00791137  RH  020%=      5-min Rain = 0
KONS 122100Z 14016G21KT 08/M14 A3017 RMK A01 T00781137  RH  020%=      5-min Rain = 0
KONS 122105Z 15018G24KT 08/M14 A3016 RMK A01 T00771136  RH  021%=      5-min Rain = 0
KONS 122110Z 15016G21KT 08/M13 A3016 RMK A01 T00761134  RH  021%=      5-min Rain = 0
KONS 122115Z 14017G24KT 08/M13 A3016 RMK A01 T00751132  RH  022%=      5-min Rain = 0
KONS 122120Z 14017KT 08/M13 A3016 RMK A01 T00761130  RH  022%=      5-min Rain = 0
KONS 122125Z 14017G24KT 08/M13 A3016 RMK A01 T00771127  RH  022%=      5-min Rain = 0
KONS 122130Z 14017G22KT 08/M12 A3016 RMK A01 T00771123  RH  023%=      5-min Rain = 0
KONS 122135Z 14016G23KT 08/M13 A3016 RMK A01 T00771126  RH  023%=      5-min Rain = 0
KONS 122140Z 14017G24KT 08/M12 A3016 RMK A01 T00801123  RH  023%=      5-min Rain = 0
KONS 122145Z 14017G22KT 08/M13 A3016 RMK A01 T00791125  RH  022%=      5-min Rain = 0
KONS 122150Z 13017G22KT 08/M12 A3016 RMK A01 T00811120  RH  023%=      5-min Rain = 0
KONS 122155Z 13015G20KT 08/M12 A3015 RMK A01 T00791121  RH  023%=      5-min Rain = 0
KONS 122200Z 14016KT 08/M12 A3015 RMK A01 T00811124  RH  022%=      5-min Rain = 0
KONS 122205Z 14015G20KT 08/M12 A3015 RMK A01 T00771120  RH  024%=      5-min Rain = 0
KONS 122210Z 14017G22KT 07/M12 A3015 RMK A01 T00741120  RH  024%=      5-min Rain = 0
KONS 122215Z 14016KT 07/M12 A3015 RMK A01 T00731120  RH  024%=      5-min Rain = 0
KONS 122220Z 15017KT 07/M12 A3015 RMK A01 T00721122  RH  024%=      5-min Rain = 0
KONS 122225Z 14016G21KT 07/M12 A3015 RMK A01 T00701121  RH  025%=      5-min Rain = 0
KONS 122230Z 15016G22KT 07/M12 A3015 RMK A01 T00691120  RH  025%=      5-min Rain = 0
KONS 122235Z 13015G20KT 07/M12 A3015 RMK A01 T00671117  RH  026%=      5-min Rain = 0
KONS 122240Z 14016KT 07/M12 A3015 RMK A01 T00681117  RH  026%=      5-min Rain = 0
KONS 122245Z 14017KT 07/M12 A3015 RMK A01 T00671118  RH  026%=      5-min Rain = 0
KONS 122250Z 13017KT 07/M12 A3015 RMK A01 T00661115  RH  027%=      5-min Rain = 0
KONS 122255Z 13016G21KT 07/M11 A3015 RMK A01 T00681113  RH  027%=      5-min Rain = 0
KONS 122300Z 14016KT 07/M12 A3015 RMK A01 T00671116  RH  026%=      5-min Rain = 0
KONS 122305Z 14017G22KT 07/M12 A3016 RMK A01 T00651115  RH  027%=      5-min Rain = 0
KONS 122310Z 13015G20KT 06/M11 A3016 RMK A01 T00621114  RH  027%=      5-min Rain = 0
KONS 122315Z 13016G21KT 06/M11 A3016 RMK A01 T00641113  RH  027%=      5-min Rain = 0
KONS 122320Z 13016KT 06/M11 A3015 RMK A01 T00631114  RH  027%=      5-min Rain = 0
KONS 122325Z 14016KT 06/M12 A3015 RMK A01 T00611115  RH  027%=      5-min Rain = 0
KONS 122330Z 14017G22KT 06/M12 A3015 RMK A01 T00591116  RH  028%=      5-min Rain = 0
KONS 122335Z 14016G21KT 06/M11 A3015 RMK A01 T00571114  RH  028%=      5-min Rain = 0
KONS 122340Z 14014G19KT 06/M11 A3015 RMK A01 T00551114  RH  029%=      5-min Rain = 0
KONS 122345Z 13015KT 05/M11 A3016 RMK A01 T00541114  RH  029%=      5-min Rain = 0
KONS 122350Z 13016G21KT 05/M12 A3016 RMK A01 T00521116  RH  029%=      5-min Rain = 0
KONS 122355Z 13013KT 05/M12 A3016 RMK A01 T00511115  RH  029%=      5-min Rain = 0
KONS 130000Z 13013G18KT 05/M12 A3016 RMK A01 T00501115  RH  030%=      5-min Rain = 0
KONS 130005Z 13014KT 05/M11 A3016 RMK A01 T00491114  RH  030%=      5-min Rain = 0
KONS 130010Z 14016G21KT 05/M11 A3016 RMK A01 T00481114  RH  030%=      5-min Rain = 0
KONS 130015Z 13012G17KT 05/M11 A3017 RMK A01 T00471114  RH  030%=      5-min Rain = 0
KONS 130020Z 13011KT 05/M11 A3017 RMK A01 T00461113  RH  031%=      5-min Rain = 0
KONS 130025Z 13012KT 04/M11 A3017 RMK A01 T00441113  RH  031%=      5-min Rain = 0
KONS 130030Z 13011KT 04/M11 A3017 RMK A01 T00431112  RH  032%=      5-min Rain = 0
KONS 130035Z 13011KT 04/M11 A3017 RMK A01 T00431113  RH  032%=      5-min Rain = 0
KONS 130040Z 13011KT 04/M11 A3017 RMK A01 T00421112  RH  032%=      5-min Rain = 0
KONS 130045Z 13011KT 04/M11 A3017 RMK A01 T00411112  RH  032%=      5-min Rain = 0
KONS 130050Z 13012KT 04/M11 A3017 RMK A01 T00401111  RH  033%=      5-min Rain = 0
KONS 130055Z 13010KT 04/M11 A3018 RMK A01 T00391111  RH  033%=      5-min Rain = 0
KONS 130100Z 13010KT 04/M11 A3018 RMK A01 T00371112  RH  033%=      5-min Rain = 0
KONS 130105Z 13011KT 04/M11 A3018 RMK A01 T00361112  RH  034%=      5-min Rain = 0
KONS 130110Z 13011KT 04/M11 A3018 RMK A01 T00351111  RH  034%=      5-min Rain = 0
KONS 130115Z 13013KT 04/M11 A3018 RMK A01 T00351112  RH  034%=      5-min Rain = 0
KONS 130120Z 13012KT 03/M11 A3018 RMK A01 T00331111  RH  034%=      5-min Rain = 0
KONS 130125Z 13011KT 03/M11 A3018 RMK A01 T00311111  RH  035%=      5-min Rain = 0
KONS 130130Z 13010KT 03/M11 A3018 RMK A01 T00291111  RH  035%=      5-min Rain = 0
KONS 130135Z 13010KT 03/M11 A3018 RMK A01 T00281111  RH  036%=      5-min Rain = 0
KONS 130140Z 13008KT 03/M11 A3019 RMK A01 T00261111  RH  036%=      5-min Rain = 0
KONS 130145Z 12007KT 02/M11 A3019 RMK A01 T00231111  RH  037%=      5-min Rain = 0
KONS 130150Z 13008KT 02/M11 A3019 RMK A01 T00201110  RH  038%=      5-min Rain = 0
KONS 130155Z 13008KT 02/M11 A3019 RMK A01 T00181110  RH  039%=      5-min Rain = 0
KONS 130200Z 12006KT 02/M11 A302 RMK A01 T00151111  RH  039%=      5-min Rain = 0
KONS 130205Z 12006KT 01/M11 A3021 RMK A01 T00131111  RH  040%=      5-min Rain = 0
KONS 130210Z 12007KT 01/M11 A3021 RMK A01 T00121111  RH  040%=      5-min Rain = 0
KONS 130215Z 13009KT 01/M11 A3021 RMK A01 T00091109  RH  041%=      5-min Rain = 0
KONS 130220Z 13010KT 01/M11 A3021 RMK A01 T00071108  RH  042%=      5-min Rain = 0
KONS 130225Z 13011KT 01/M11 A3021 RMK A01 T00071109  RH  042%=      5-min Rain = 0
KONS 130230Z 13010KT 01/M11 A3021 RMK A01 T00081110  RH  042%=      5-min Rain = 0
KONS 130235Z 13010KT 01/M11 A3021 RMK A01 T00071110  RH  042%=      5-min Rain = 0
KONS 130240Z 13009KT 01/M11 A3021 RMK A01 T00071110  RH  042%=      5-min Rain = 0
KONS 130245Z 12008KT 01/M11 A3021 RMK A01 T00061110  RH  042%=      5-min Rain = 0
KONS 130250Z 12007KT 00/M11 A3022 RMK A01 T00041110  RH  043%=      5-min Rain = 0
KONS 130255Z 11007KT 00/M11 A3022 RMK A01 T00021110  RH  043%=      5-min Rain = 0
KONS 130300Z 12008KT 00/M11 A3023 RMK A01 T00021110  RH  043%=      5-min Rain = 0
KONS 130305Z 12007KT 00/M11 A3023 RMK A01 T00011109  RH  044%=      5-min Rain = 0
KONS 130310Z 12008KT 00/11 A3022 RMK A01 T00000-109  RH  044%=      5-min Rain = 0
KONS 130315Z 12007KT M00/M11 A3022 RMK A01 T10011109  RH  045%=      5-min Rain = 0
KONS 130320Z 12007KT M00/M11 A3022 RMK A01 T10041109  RH  046%=      5-min Rain = 0
KONS 130325Z 12008KT M01/M11 A3022 RMK A01 T10071108  RH  047%=      5-min Rain = 0
KONS 130330Z 12008KT M01/M11 A3022 RMK A01 T10081108  RH  047%=      5-min Rain = 0
KONS 130335Z 13008KT M01/M11 A3022 RMK A01 T10081107  RH  048%=      5-min Rain = 0
KONS 130340Z 12009KT M01/M11 A3022 RMK A01 T10101108  RH  048%=      5-min Rain = 0
KONS 130345Z 12010KT M01/M11 A3022 RMK A01 T10111109  RH  048%=      5-min Rain = 0
KONS 130350Z 12011KT M01/M11 A3021 RMK A01 T10131109  RH  049%=      5-min Rain = 0
KONS 130355Z 12009KT M01/M11 A3021 RMK A01 T10121109  RH  048%=      5-min Rain = 0
KONS 130400Z 13010KT M01/M11 A3021 RMK A01 T10131108  RH  049%=      5-min Rain = 0
KONS 130405Z 13010KT M01/M11 A3022 RMK A01 T10131109  RH  049%=      5-min Rain = 0
KONS 130410Z 13009KT M01/M11 A3022 RMK A01 T10141109  RH  049%=      5-min Rain = 0
KONS 130415Z 13010KT M02/M11 A3022 RMK A01 T10151109  RH  049%=      5-min Rain = 0
KONS 130420Z 13009KT M02/M11 A3022 RMK A01 T10171110  RH  050%=      5-min Rain = 0
KONS 130425Z 12007KT M02/M11 A3023 RMK A01 T10191110  RH  050%=      5-min Rain = 0
KONS 130430Z 12007KT M02/M11 A3023 RMK A01 T10211111  RH  051%=      5-min Rain = 0
KONS 130435Z 12007KT M02/M11 A3023 RMK A01 T10221112  RH  051%=      5-min Rain = 0
KONS 130440Z 12007KT M02/M11 A3023 RMK A01 T10231112  RH  051%=      5-min Rain = 0
KONS 130445Z 12007KT M03/M11 A3023 RMK A01 T10261112  RH  052%=      5-min Rain = 0
KONS 130450Z 12008KT M03/M11 A3023 RMK A01 T10281112  RH  053%=      5-min Rain = 0
KONS 130455Z 12007KT M03/M11 A3023 RMK A01 T10291113  RH  053%=      5-min Rain = 0
KONS 130500Z 12008KT M03/M11 A3023 RMK A01 T10291113  RH  053%=      5-min Rain = 0
KONS 130505Z 11008KT M03/M11 A3023 RMK A01 T10321113  RH  054%=      5-min Rain = 0
KONS 130510Z 12008KT M03/M11 A3023 RMK A01 T10311113  RH  054%=      5-min Rain = 0
KONS 130515Z 11008KT M03/M11 A3023 RMK A01 T10311113  RH  054%=      5-min Rain = 0
KONS 130520Z 11007KT M03/M11 A3023 RMK A01 T10331114  RH  054%=      5-min Rain = 0
KONS 130525Z 10006KT M04/M12 A3023 RMK A01 T10361118  RH  054%=      5-min Rain = 0
KONS 130530Z 10005KT M04/M12 A3022 RMK A01 T10401121  RH  054%=      5-min Rain = 0
KONS 130535Z 11006KT M04/M12 A3022 RMK A01 T10401119  RH  055%=      5-min Rain = 0
KONS 130540Z 10005KT M04/M12 A3023 RMK A01 T10401121  RH  054%=      5-min Rain = 0
KONS 130545Z 10004KT M04/M13 A3023 RMK A01 T10441125  RH  054%=      5-min Rain = 0
KONS 130550Z 11005KT M05/M13 A3023 RMK A01 T10461126  RH  055%=      5-min Rain = 0
KONS 130555Z 11005KT M05/M12 A3023 RMK A01 T10471123  RH  056%=      5-min Rain = 0

Page generated in 0.0103 seconds.